createdAt,value
2023-03-02T00:01:10.124Z,8.25
2023-03-02T00:03:39.054Z,8.02
2023-03-02T00:06:06.560Z,8.13
2023-03-02T00:08:33.947Z,5.85
2023-03-02T00:11:01.259Z,8.52
2023-03-02T00:13:30.161Z,7.88
2023-03-02T00:15:56.580Z,8.60
2023-03-02T00:18:23.249Z,8.35
2023-03-02T00:20:49.584Z,7.82
2023-03-02T00:23:15.978Z,7.50
2023-03-02T00:25:42.825Z,7.85
2023-03-02T00:28:09.207Z,7.70
2023-03-02T00:30:37.320Z,8.18
2023-03-02T00:33:03.746Z,9.02
2023-03-02T00:35:30.314Z,9.43
2023-03-02T00:37:56.918Z,8.18
2023-03-02T00:40:23.539Z,8.02
2023-03-02T00:42:50.097Z,7.45
2023-03-02T00:45:16.458Z,7.97
2023-03-02T00:47:42.894Z,8.13
2023-03-02T00:50:10.340Z,8.50
2023-03-02T00:52:36.711Z,5.85
2023-03-02T00:55:03.191Z,7.75
2023-03-02T00:57:29.791Z,7.70
2023-03-02T00:59:56.192Z,8.25
2023-03-02T01:02:22.625Z,7.97
2023-03-02T01:04:49.329Z,7.65
2023-03-02T01:07:18.206Z,7.20
2023-03-02T01:09:45.468Z,6.93
2023-03-02T01:12:12.052Z,7.60
2023-03-02T01:14:42.042Z,8.10
2023-03-02T01:17:09.868Z,7.53
2023-03-02T01:19:36.899Z,8.88
2023-03-02T01:22:04.914Z,8.18
2023-03-02T01:24:32.190Z,8.48
2023-03-02T01:26:58.785Z,8.13
2023-03-02T01:29:25.487Z,7.95
2023-03-02T01:31:52.229Z,8.43
2023-03-02T01:34:18.710Z,8.70
2023-03-02T01:36:45.524Z,8.50
2023-03-02T01:39:16.122Z,8.13
2023-03-02T01:41:44.799Z,9.05
2023-03-02T01:44:42.007Z,7.65
2023-03-02T01:47:17.687Z,6.57
2023-03-02T01:49:54.981Z,8.90
2023-03-02T01:52:21.841Z,8.40
2023-03-02T01:54:49.986Z,8.55
2023-03-02T01:57:23.772Z,8.45
2023-03-02T01:59:56.520Z,8.02
2023-03-02T02:02:23.535Z,7.82
2023-03-02T02:04:51.584Z,8.88
2023-03-02T02:07:18.938Z,8.40
2023-03-02T02:09:51.490Z,8.95
2023-03-02T02:12:23.473Z,8.73
2023-03-02T02:14:50.362Z,8.88
2023-03-02T02:17:18.393Z,8.30
2023-03-02T02:20:07.214Z,8.30
2023-03-02T02:22:48.079Z,7.63
2023-03-02T02:25:36.598Z,8.57
2023-03-02T02:28:08.468Z,8.88
2023-03-02T02:30:38.026Z,9.32
2023-03-02T02:33:05.764Z,7.50
2023-03-02T02:35:36.661Z,7.68
2023-03-02T02:38:06.236Z,8.52
2023-03-02T02:40:55.414Z,8.20
2023-03-02T02:43:23.591Z,8.15
2023-03-02T02:45:54.004Z,8.30
2023-03-02T02:48:26.914Z,7.78
2023-03-02T02:51:00.119Z,8.20
2023-03-02T02:53:43.115Z,8.07
2023-03-02T02:56:11.150Z,7.88
2023-03-02T02:58:43.465Z,8.23
2023-03-02T03:01:17.556Z,8.02
2023-03-02T03:03:53.186Z,8.95
2023-03-02T03:06:25.745Z,8.05
2023-03-02T03:08:56.595Z,7.97
2023-03-02T03:11:26.628Z,8.00
2023-03-02T03:14:02.272Z,7.95
2023-03-02T03:16:31.420Z,7.82
2023-03-02T03:19:05.772Z,8.23
2023-03-02T03:21:32.452Z,8.02
2023-03-02T03:23:59.154Z,8.23
2023-03-02T03:26:25.528Z,7.72
2023-03-02T03:28:51.965Z,8.10
2023-03-02T03:31:18.715Z,7.43
2023-03-02T03:33:45.130Z,7.30
2023-03-02T03:36:11.798Z,7.20
2023-03-02T03:38:38.547Z,7.35
2023-03-02T03:41:05.173Z,7.43
2023-03-02T03:43:32.048Z,7.93
2023-03-02T03:45:58.390Z,7.70
2023-03-02T03:48:24.987Z,7.28
2023-03-02T03:50:51.558Z,6.80
2023-03-02T03:53:19.278Z,7.03
2023-03-02T03:55:45.890Z,7.20
2023-03-02T03:58:12.437Z,6.88
2023-03-02T04:00:38.974Z,6.30
2023-03-02T04:03:05.336Z,7.88
2023-03-02T04:05:33.347Z,7.30
2023-03-02T04:08:02.336Z,6.90
2023-03-02T04:10:29.642Z,7.00
2023-03-02T04:12:56.589Z,7.35
2023-03-02T04:15:23.839Z,7.85
2023-03-02T04:17:51.122Z,7.20
2023-03-02T04:20:21.782Z,8.10
2023-03-02T04:22:51.752Z,6.88
2023-03-02T04:25:21.623Z,7.35
2023-03-02T04:27:50.361Z,6.93
2023-03-02T04:30:20.368Z,7.13
2023-03-02T04:32:47.255Z,7.30
2023-03-02T04:35:14.463Z,6.57
2023-03-02T04:37:42.305Z,7.35
2023-03-02T04:40:10.121Z,7.32
2023-03-02T04:42:36.537Z,7.68
2023-03-02T04:45:04.060Z,7.07
2023-03-02T04:47:30.411Z,7.50
2023-03-02T04:49:58.114Z,7.88
2023-03-02T04:52:25.584Z,5.90
2023-03-02T04:54:52.328Z,8.05
2023-03-02T04:57:18.688Z,7.32
2023-03-02T04:59:45.317Z,7.18
2023-03-02T05:02:11.925Z,8.05
2023-03-02T05:04:40.663Z,7.72
2023-03-02T05:07:07.078Z,8.13
2023-03-02T05:09:33.476Z,7.90
2023-03-02T05:12:00.728Z,7.07
2023-03-02T05:14:27.406Z,8.55
2023-03-02T05:16:54.023Z,8.07
2023-03-02T05:19:20.629Z,8.68
2023-03-02T05:21:47.198Z,9.30
2023-03-02T05:24:14.534Z,7.97
2023-03-02T05:26:41.026Z,7.03
2023-03-02T05:29:07.630Z,7.30
2023-03-02T05:31:37.526Z,8.10
2023-03-02T05:34:05.948Z,8.07
2023-03-02T05:38:59.414Z,8.25
2023-03-02T05:41:25.921Z,8.38
2023-03-02T05:43:53.386Z,7.53
2023-03-02T05:46:22.008Z,8.00
2023-03-02T05:48:48.748Z,8.18
2023-03-02T05:51:15.569Z,8.40
2023-03-02T05:53:41.938Z,8.98
2023-03-02T05:56:08.693Z,8.45
2023-03-02T05:58:35.120Z,8.38
2023-03-02T06:01:01.803Z,7.53
2023-03-02T06:03:28.874Z,8.18
2023-03-02T06:05:55.259Z,7.53
2023-03-02T06:08:21.908Z,8.13
2023-03-02T06:10:51.635Z,8.65
2023-03-02T06:13:17.990Z,9.23
2023-03-02T06:15:44.731Z,8.23
2023-03-02T06:18:12.745Z,8.65
2023-03-02T06:20:40.634Z,8.80
2023-03-02T06:23:06.983Z,9.20
2023-03-02T06:25:33.637Z,8.15
2023-03-02T06:27:59.970Z,8.27
2023-03-02T06:30:27.812Z,8.65
2023-03-02T06:32:54.505Z,7.68
2023-03-02T06:35:21.044Z,8.30
2023-03-02T06:37:47.508Z,8.07
2023-03-02T06:40:14.407Z,8.30
2023-03-02T06:42:42.147Z,8.65
2023-03-02T06:45:09.845Z,8.68
2023-03-02T06:47:36.664Z,9.13
2023-03-02T06:50:04.017Z,8.07
2023-03-02T06:52:30.364Z,8.40
2023-03-02T06:54:56.801Z,9.20
2023-03-02T06:57:23.389Z,8.50
2023-03-02T06:59:49.747Z,9.07
2023-03-02T07:02:16.082Z,8.77
2023-03-02T07:04:42.482Z,9.23
2023-03-02T07:07:08.825Z,8.43
2023-03-02T07:09:35.292Z,8.77
2023-03-02T07:12:01.895Z,8.63
2023-03-02T07:14:28.256Z,8.95
2023-03-02T07:16:57.302Z,9.15
2023-03-02T07:19:24.003Z,9.32
2023-03-02T07:21:50.340Z,8.68
2023-03-02T07:24:16.733Z,8.27
2023-03-02T07:26:43.227Z,9.18
2023-03-02T07:29:09.797Z,9.50
2023-03-02T07:31:36.409Z,8.95
2023-03-02T07:34:02.789Z,9.93
2023-03-02T07:36:29.169Z,9.05
2023-03-02T07:38:55.561Z,9.77
2023-03-02T07:41:22.977Z,10.30
2023-03-02T07:43:49.337Z,9.75
2023-03-02T07:46:16.181Z,9.13
2023-03-02T07:48:42.628Z,10.15
2023-03-02T07:51:08.983Z,9.60
2023-03-02T07:53:35.618Z,9.32
2023-03-02T07:56:10.006Z,9.30
2023-03-02T07:58:36.753Z,9.73
2023-03-02T08:01:03.810Z,9.98
2023-03-02T08:03:30.200Z,9.70
2023-03-02T08:05:56.509Z,10.52
2023-03-02T08:08:22.896Z,9.60
2023-03-02T08:10:49.678Z,10.15
2023-03-02T08:13:16.078Z,9.70
2023-03-02T08:15:42.621Z,10.20
2023-03-02T08:18:09.299Z,9.18
2023-03-02T08:20:35.651Z,9.98
2023-03-02T08:23:02.274Z,9.40
2023-03-02T08:25:29.061Z,8.63
2023-03-02T08:27:55.456Z,9.13
2023-03-02T08:30:21.851Z,10.18
2023-03-02T08:32:48.326Z,9.85
2023-03-02T08:35:14.919Z,8.70
2023-03-02T08:37:41.294Z,8.27
2023-03-02T08:40:08.354Z,8.27
2023-03-02T08:42:34.676Z,8.52
2023-03-02T08:45:01.046Z,9.60
2023-03-02T08:47:28.464Z,9.20
2023-03-02T08:49:55.018Z,9.70
2023-03-02T08:52:21.709Z,8.50
2023-03-02T08:54:48.335Z,9.00
2023-03-02T08:57:14.811Z,9.00
2023-03-02T08:59:41.448Z,8.40
2023-03-02T09:02:10.568Z,9.20
2023-03-02T09:04:37.099Z,9.02
2023-03-02T09:07:04.577Z,8.25
2023-03-02T09:09:30.907Z,8.43
2023-03-02T09:11:57.331Z,9.02
2023-03-02T09:14:24.810Z,8.05
2023-03-02T09:16:52.710Z,7.83
2023-03-02T09:19:19.230Z,7.72
2023-03-02T09:21:45.909Z,7.45
2023-03-02T09:24:12.338Z,6.93
2023-03-02T09:26:39.059Z,7.40
2023-03-02T09:29:07.057Z,7.57
2023-03-02T09:31:34.878Z,7.43
2023-03-02T09:34:01.622Z,8.65
2023-03-02T09:36:28.483Z,6.70
2023-03-02T09:38:55.493Z,6.80
2023-03-02T09:41:41.437Z,6.68
2023-03-02T09:44:34.775Z,7.10
2023-03-02T09:47:04.754Z,7.13
2023-03-02T09:49:49.308Z,7.10
2023-03-02T09:52:34.447Z,7.15
2023-03-02T09:55:14.812Z,6.55
2023-03-02T09:57:41.395Z,7.82
2023-03-02T10:00:19.460Z,6.70
2023-03-02T10:02:51.009Z,6.70
2023-03-02T10:05:22.852Z,7.75
2023-03-02T10:07:49.596Z,6.88
2023-03-02T10:10:25.820Z,6.78
2023-03-02T10:13:19.748Z,7.05
2023-03-02T10:15:52.062Z,6.55
2023-03-02T10:18:24.282Z,6.22
2023-03-02T10:21:00.042Z,6.22
2023-03-02T10:24:09.720Z,6.88
2023-03-02T10:26:40.440Z,6.03
2023-03-02T10:29:28.777Z,6.88
2023-03-02T10:34:37.879Z,6.95
2023-03-02T10:37:13.879Z,6.80
2023-03-02T10:39:40.502Z,6.82
2023-03-02T10:42:14.082Z,7.20
2023-03-02T10:44:44.439Z,6.80
2023-03-02T10:47:21.045Z,6.75
2023-03-02T10:49:48.490Z,6.50
2023-03-02T10:52:20.378Z,6.93
2023-03-02T10:54:49.974Z,5.93
2023-03-02T10:58:04.364Z,6.05
2023-03-02T11:00:33.364Z,6.45
2023-03-02T11:03:04.396Z,6.43
2023-03-02T11:05:40.310Z,5.95
2023-03-02T11:08:26.478Z,6.75
2023-03-02T11:11:00.011Z,6.07
2023-03-02T11:13:36.980Z,5.35
2023-03-02T11:16:31.820Z,5.88
2023-03-02T11:19:16.096Z,5.68
2023-03-02T11:22:21.343Z,5.93
2023-03-02T11:24:57.702Z,5.57
2023-03-02T11:27:29.823Z,5.65
2023-03-02T11:30:18.453Z,5.93
2023-03-02T11:33:04.765Z,5.30
2023-03-02T11:35:35.319Z,5.18
2023-03-02T11:38:28.400Z,5.38
2023-03-02T11:41:07.958Z,5.65
2023-03-02T11:43:34.409Z,5.18
2023-03-02T11:46:21.185Z,4.63
2023-03-02T11:48:53.079Z,5.30
2023-03-02T11:51:25.373Z,5.40
2023-03-02T11:53:59.184Z,5.05
2023-03-02T11:56:37.259Z,5.32
2023-03-02T11:59:12.542Z,5.55
2023-03-02T12:01:40.540Z,5.60
2023-03-02T12:04:26.491Z,5.30
2023-03-02T12:06:53.709Z,5.82
2023-03-02T12:09:23.211Z,5.28
2023-03-02T12:12:23.739Z,5.40
2023-03-02T12:14:50.322Z,4.72
2023-03-02T12:17:19.337Z,5.10
2023-03-02T12:19:47.328Z,5.20
2023-03-02T12:22:24.922Z,4.68
2023-03-02T12:25:19.148Z,5.30
2023-03-02T12:27:48.688Z,4.95
2023-03-02T12:30:15.524Z,5.25
2023-03-02T12:32:45.215Z,5.20
2023-03-02T12:35:17.763Z,5.53
2023-03-02T12:38:05.929Z,5.05
2023-03-02T12:40:59.191Z,5.32
2023-03-02T12:43:30.770Z,5.22
2023-03-02T12:46:37.080Z,5.28
2023-03-02T12:49:31.397Z,4.85
2023-03-02T12:52:01.914Z,5.13
2023-03-02T12:54:31.627Z,5.13
2023-03-02T12:57:13.981Z,5.45
2023-03-02T12:59:40.625Z,5.32
2023-03-02T13:02:36.993Z,4.93
2023-03-02T13:05:08.764Z,5.30
2023-03-02T13:07:41.400Z,5.38
2023-03-02T13:10:36.061Z,5.65
2023-03-02T13:13:15.474Z,4.88
2023-03-02T13:18:53.793Z,4.78
2023-03-02T13:21:21.909Z,5.30
2023-03-02T13:23:51.736Z,6.28
2023-03-02T13:26:35.798Z,5.88
2023-03-02T13:29:32.370Z,5.53
2023-03-02T13:32:15.703Z,6.15
2023-03-02T13:34:50.008Z,5.15
2023-03-02T13:37:23.068Z,5.15
2023-03-02T13:39:57.540Z,5.10
2023-03-02T13:42:39.275Z,5.60
2023-03-02T13:45:24.053Z,5.90
2023-03-02T13:47:51.369Z,5.68
2023-03-02T13:50:25.254Z,5.65
2023-03-02T13:52:55.149Z,5.82
2023-03-02T13:55:26.622Z,5.82
2023-03-02T13:57:54.468Z,4.93
2023-03-02T14:00:29.170Z,5.80
2023-03-02T14:02:56.958Z,6.93
2023-03-02T14:05:32.949Z,6.57
2023-03-02T14:08:03.186Z,6.68
2023-03-02T14:10:29.614Z,6.18
2023-03-02T14:13:03.886Z,6.38
2023-03-02T14:15:30.482Z,6.07
2023-03-02T14:17:57.156Z,6.05
2023-03-02T14:20:23.784Z,5.95
2023-03-02T14:22:50.720Z,7.22
2023-03-02T14:25:17.648Z,6.22
2023-03-02T14:27:44.169Z,6.03
2023-03-02T14:30:21.558Z,5.43
2023-03-02T14:32:49.647Z,5.78
2023-03-02T14:35:16.536Z,6.30
2023-03-02T14:37:47.186Z,6.30
2023-03-02T14:40:18.865Z,6.00
2023-03-02T14:42:45.500Z,6.03
2023-03-02T14:45:12.451Z,7.72
2023-03-02T14:47:38.840Z,7.70
2023-03-02T14:50:06.234Z,9.35
2023-03-02T14:52:41.787Z,8.20
2023-03-02T14:55:19.325Z,9.68
2023-03-02T14:57:50.283Z,9.73
2023-03-02T15:00:18.145Z,10.15
2023-03-02T15:02:44.865Z,10.50
2023-03-02T15:05:11.468Z,11.57
2023-03-02T15:07:38.909Z,11.73
2023-03-02T15:10:06.014Z,11.40
2023-03-02T15:12:32.439Z,12.38
2023-03-02T15:15:00.416Z,11.25
2023-03-02T15:17:27.711Z,11.10
2023-03-02T15:19:54.156Z,12.52
2023-03-02T15:22:20.782Z,10.90
2023-03-02T15:24:48.395Z,12.07
2023-03-02T15:27:15.665Z,11.03
2023-03-02T15:29:48.202Z,11.45
2023-03-02T15:32:15.027Z,11.98
2023-03-02T15:34:42.673Z,11.77
2023-03-02T15:37:13.540Z,12.70
2023-03-02T15:39:40.287Z,12.32
2023-03-02T15:42:07.010Z,13.35
2023-03-02T15:44:33.685Z,12.90
2023-03-02T15:47:01.668Z,13.10
2023-03-02T15:49:29.358Z,12.32
2023-03-02T15:51:57.724Z,12.50
2023-03-02T15:54:27.340Z,12.52
2023-03-02T15:56:54.041Z,12.55
2023-03-02T15:59:22.517Z,13.75
2023-03-02T16:01:49.704Z,14.60
2023-03-02T16:04:16.332Z,12.90
2023-03-02T16:06:43.528Z,14.85
2023-03-02T16:09:10.368Z,13.70
2023-03-02T16:11:38.194Z,13.98
2023-03-02T16:14:04.888Z,13.95
2023-03-02T16:16:31.483Z,14.45
2023-03-02T16:18:59.477Z,13.68
2023-03-02T16:21:30.880Z,16.85
2023-03-02T16:24:05.056Z,14.32
2023-03-02T16:26:35.563Z,14.82
2023-03-02T16:29:02.582Z,15.02
2023-03-02T16:31:33.271Z,14.15
2023-03-02T16:34:07.531Z,14.55
2023-03-02T16:36:39.450Z,15.38
2023-03-02T16:39:08.884Z,14.70
2023-03-02T16:41:38.900Z,16.88
2023-03-02T16:44:08.721Z,15.73
2023-03-02T16:46:39.485Z,16.92
2023-03-02T16:49:06.732Z,16.17
2023-03-02T16:51:34.414Z,16.77
2023-03-02T16:54:09.543Z,17.63
2023-03-02T16:56:38.008Z,17.75
2023-03-02T16:59:04.485Z,16.25
2023-03-02T17:01:31.920Z,16.90
2023-03-02T17:04:01.211Z,16.38
2023-03-02T17:06:30.319Z,17.48
2023-03-02T17:08:57.910Z,16.67
2023-03-02T17:11:25.844Z,18.00
2023-03-02T17:13:52.333Z,18.90
2023-03-02T17:16:20.691Z,18.08
2023-03-02T17:18:48.662Z,18.90
2023-03-02T17:21:17.359Z,19.17
2023-03-02T17:23:45.875Z,18.58
2023-03-02T17:28:40.190Z,18.90
2023-03-02T17:31:08.854Z,18.58
2023-03-02T17:33:37.352Z,18.33
2023-03-02T17:36:08.526Z,18.40
2023-03-02T17:38:36.393Z,18.60
2023-03-02T17:41:05.044Z,18.87
2023-03-02T17:43:37.168Z,17.85
2023-03-02T17:46:22.677Z,16.55
2023-03-02T17:48:53.926Z,18.17
2023-03-02T17:51:24.634Z,17.80
2023-03-02T17:53:58.254Z,17.48
2023-03-02T17:56:27.352Z,17.85
2023-03-02T17:58:57.901Z,18.27
2023-03-02T18:01:24.841Z,17.73
2023-03-02T18:03:51.739Z,17.90
2023-03-02T18:06:20.548Z,18.55
2023-03-02T18:08:59.649Z,19.05
2023-03-02T18:11:26.831Z,19.10
2023-03-02T18:13:54.932Z,19.50
2023-03-02T18:16:26.343Z,20.10
2023-03-02T18:18:54.131Z,19.38
2023-03-02T18:21:27.736Z,20.98
2023-03-02T18:23:56.017Z,20.45
2023-03-02T18:26:22.519Z,20.48
2023-03-02T18:28:48.892Z,21.17
2023-03-02T18:31:21.190Z,20.92
2023-03-02T18:33:54.128Z,21.23
2023-03-02T18:36:23.146Z,20.92
2023-03-02T18:38:52.963Z,21.35
2023-03-02T18:41:24.066Z,20.42
2023-03-02T18:43:51.294Z,21.42
2023-03-02T18:46:26.751Z,23.23
2023-03-02T18:48:54.734Z,22.20
2023-03-02T18:51:27.252Z,22.23
2023-03-02T18:53:55.064Z,21.73
2023-03-02T18:59:05.975Z,21.48
2023-03-02T19:01:36.632Z,22.45
2023-03-02T19:04:03.497Z,22.77
2023-03-02T19:06:29.932Z,22.13
2023-03-02T19:08:59.035Z,22.20
2023-03-02T19:11:26.621Z,23.48
2023-03-02T19:13:56.277Z,24.07
2023-03-02T19:16:22.772Z,23.30
2023-03-02T19:18:49.968Z,22.85
2023-03-02T19:21:22.274Z,22.67
2023-03-02T19:23:48.648Z,21.75
2023-03-02T19:26:15.628Z,23.05
2023-03-02T19:28:44.321Z,24.02
2023-03-02T19:31:11.954Z,22.75
2023-03-02T19:33:42.274Z,24.10
2023-03-02T19:36:09.890Z,23.08
2023-03-02T19:38:42.350Z,24.93
2023-03-02T19:41:19.657Z,23.75
2023-03-02T19:43:47.403Z,23.50
2023-03-02T19:46:16.111Z,23.17
2023-03-02T19:48:44.873Z,25.67
2023-03-02T19:51:13.092Z,24.98
2023-03-02T19:53:43.094Z,24.95
2023-03-02T19:56:14.534Z,25.63
2023-03-02T19:58:49.784Z,25.77
2023-03-02T20:01:21.650Z,25.50
2023-03-02T20:03:51.491Z,25.70
2023-03-02T20:06:19.049Z,25.75
2023-03-02T20:08:47.965Z,26.27
2023-03-02T20:11:15.683Z,24.77
2023-03-02T20:13:42.257Z,26.63
2023-03-02T20:16:14.696Z,26.98
2023-03-02T20:18:42.220Z,26.05
2023-03-02T20:21:09.725Z,26.57
2023-03-02T20:23:36.593Z,26.67
2023-03-02T20:26:08.521Z,27.65
2023-03-02T20:28:36.735Z,26.35
2023-03-02T20:31:08.898Z,26.38
2023-03-02T20:33:42.197Z,26.60
2023-03-02T20:36:10.188Z,28.27
2023-03-02T20:38:41.234Z,28.20
2023-03-02T20:41:09.926Z,28.15
2023-03-02T20:43:36.572Z,28.50
2023-03-02T20:46:06.527Z,28.75
2023-03-02T20:48:35.341Z,29.65
2023-03-02T20:51:03.374Z,31.65
2023-03-02T20:53:30.352Z,31.08
2023-03-02T20:56:06.277Z,31.30
2023-03-02T20:58:41.181Z,30.90
2023-03-02T21:01:10.535Z,33.38
2023-03-02T21:03:37.858Z,31.80
2023-03-02T21:06:05.339Z,33.47
2023-03-02T21:08:34.167Z,33.20
2023-03-02T21:11:00.943Z,34.75
2023-03-02T21:13:37.276Z,33.67
2023-03-02T21:16:07.478Z,34.20
2023-03-02T21:18:35.905Z,33.42
2023-03-02T21:21:03.166Z,33.03
2023-03-02T21:23:30.350Z,33.58
2023-03-02T21:25:58.514Z,32.15
2023-03-02T21:28:26.593Z,31.67
2023-03-02T21:30:53.343Z,32.03
2023-03-02T21:33:20.006Z,31.70
2023-03-02T21:35:47.217Z,31.45
2023-03-02T21:38:14.907Z,32.28
2023-03-02T21:40:46.392Z,29.98
2023-03-02T21:43:13.734Z,30.60
2023-03-02T21:45:43.048Z,31.25
2023-03-02T21:48:13.658Z,31.60
2023-03-02T21:50:45.885Z,29.50
2023-03-02T21:53:12.266Z,30.92
2023-03-02T21:55:39.922Z,30.92
2023-03-02T21:58:06.311Z,30.02
2023-03-02T22:00:35.780Z,30.67
2023-03-02T22:03:02.736Z,32.53
2023-03-02T22:05:30.502Z,30.75
2023-03-02T22:07:59.274Z,30.85
2023-03-02T22:10:55.233Z,30.98
2023-03-02T22:13:27.071Z,31.40
2023-03-02T22:16:18.170Z,30.77
2023-03-02T22:18:48.855Z,32.17
2023-03-02T22:21:38.153Z,30.92
2023-03-02T22:24:11.630Z,30.15
2023-03-02T22:26:47.619Z,30.15
2023-03-02T22:29:37.574Z,29.85
2023-03-02T22:32:17.903Z,29.70
2023-03-02T22:34:46.551Z,28.23
2023-03-02T22:37:22.770Z,29.73
2023-03-02T22:39:53.364Z,29.30
2023-03-02T22:42:22.496Z,27.50
2023-03-02T22:44:59.572Z,27.50
2023-03-02T22:47:28.047Z,27.90
2023-03-02T22:50:18.963Z,28.38
2023-03-02T22:52:46.986Z,28.65
2023-03-02T22:55:39.351Z,29.02
2023-03-02T22:58:30.551Z,28.08
2023-03-02T23:01:03.039Z,27.67
2023-03-02T23:03:44.785Z,27.17
2023-03-02T23:06:25.509Z,29.00
2023-03-02T23:08:56.422Z,27.58
2023-03-02T23:11:27.338Z,28.67
2023-03-02T23:13:54.556Z,27.33
2023-03-02T23:16:30.003Z,28.80
2023-03-02T23:18:59.722Z,28.38
2023-03-02T23:21:48.054Z,28.83
2023-03-02T23:24:20.584Z,28.75
2023-03-02T23:26:48.031Z,29.13
2023-03-02T23:29:20.251Z,28.90
2023-03-02T23:31:47.109Z,28.63
2023-03-02T23:34:17.014Z,28.17
2023-03-02T23:36:44.441Z,28.50
2023-03-02T23:39:11.535Z,27.38
2023-03-02T23:41:39.579Z,26.73
2023-03-02T23:44:08.860Z,29.35
2023-03-02T23:46:43.803Z,27.90
2023-03-02T23:49:12.343Z,28.67
2023-03-02T23:51:41.115Z,26.80
2023-03-02T23:54:07.992Z,27.63
2023-03-02T23:56:34.474Z,28.10
2023-03-02T23:59:02.732Z,28.50
